createdAt,value
2022-07-29T00:03:24.098Z,977.67
2022-07-29T00:08:55.537Z,977.45
2022-07-29T00:14:27.257Z,977.36
2022-07-29T00:19:59.103Z,977.46
2022-07-29T00:25:34.186Z,977.54
2022-07-29T00:31:02.637Z,977.45
2022-07-29T00:36:38.540Z,977.48
2022-07-29T00:42:10.350Z,976.54
2022-07-29T00:47:42.022Z,977.26
2022-07-29T00:53:13.750Z,977.55
2022-07-29T00:58:45.619Z,977.09
2022-07-29T01:04:18.654Z,977.42
2022-07-29T01:09:48.882Z,977.57
2022-07-29T01:15:20.692Z,977.48
2022-07-29T01:20:52.419Z,977.83
2022-07-29T01:26:25.815Z,977.79
2022-07-29T01:32:01.598Z,977.66
2022-07-29T01:37:33.944Z,977.5
2022-07-29T01:43:05.751Z,977.41
2022-07-29T01:48:37.646Z,977.48
2022-07-29T01:54:09.041Z,977.5
2022-07-29T01:59:41.781Z,977.45
2022-07-29T02:05:12.798Z,977.69
2022-07-29T02:10:44.286Z,977.4
2022-07-29T02:16:16.171Z,977.46
2022-07-29T02:21:47.663Z,977.32
2022-07-29T02:27:19.552Z,977.13
2022-07-29T02:32:51.131Z,977.34
2022-07-29T02:38:29.232Z,977.09
2022-07-29T02:44:00.938Z,977.3
2022-07-29T02:49:32.666Z,977.44
2022-07-29T02:55:04.402Z,977.31
2022-07-29T03:00:36.200Z,977.18
2022-07-29T03:06:07.846Z,977.05
2022-07-29T03:11:51.350Z,977.29
2022-07-29T03:17:11.274Z,977.5
2022-07-29T03:22:43.007Z,977.74
2022-07-29T03:28:19.487Z,977.69
2022-07-29T03:33:46.434Z,977.73
2022-07-29T03:39:22.536Z,977.84
2022-07-29T03:44:54.301Z,977.67
2022-07-29T03:50:25.901Z,977.73
2022-07-29T03:55:57.779Z,977.86
2022-07-29T04:01:29.657Z,977.99
2022-07-29T04:07:01.938Z,977.89
2022-07-29T04:12:32.837Z,977.92
2022-07-29T04:18:04.660Z,977.91
2022-07-29T04:23:54.505Z,978.01
2022-07-29T04:29:08.157Z,978.01
2022-07-29T04:34:39.716Z,978.03
2022-07-29T04:40:17.923Z,978.04
2022-07-29T04:45:49.672Z,978.2
2022-07-29T04:51:21.389Z,978.21
2022-07-29T04:56:53.065Z,978.25
2022-07-29T05:02:25.239Z,978.36
2022-07-29T05:07:56.749Z,978.58
2022-07-29T05:13:47.502Z,978.59
2022-07-29T05:18:59.967Z,978.64
2022-07-29T05:24:31.862Z,978.76
2022-07-29T05:30:03.423Z,978.38
2022-07-29T05:35:35.148Z,978.56
2022-07-29T05:41:11.284Z,978.29
2022-07-29T05:46:43.192Z,978.44
2022-07-29T05:52:14.704Z,979.0
2022-07-29T05:57:46.389Z,979.06
2022-07-29T06:03:18.263Z,978.87
2022-07-29T06:08:50.003Z,978.91
2022-07-29T06:14:21.688Z,978.92
2022-07-29T06:19:53.256Z,979.06
2022-07-29T06:25:25.013Z,979.27
2022-07-29T06:30:56.968Z,979.36
2022-07-29T06:36:29.211Z,979.54
2022-07-29T06:42:04.634Z,979.87
2022-07-29T06:47:36.401Z,979.44
2022-07-29T06:53:08.130Z,979.74
2022-07-29T06:58:39.895Z,979.06
2022-07-29T07:04:11.679Z,979.49
2022-07-29T07:09:43.288Z,979.72
2022-07-29T07:15:15.005Z,979.02
2022-07-29T07:20:46.924Z,980.02
2022-07-29T07:26:18.480Z,979.55
2022-07-29T07:31:50.478Z,979.45
2022-07-29T07:37:22.018Z,979.88
2022-07-29T07:42:58.121Z,979.7
2022-07-29T07:48:29.991Z,979.77
2022-07-29T07:54:04.313Z,980.03
2022-07-29T07:59:33.322Z,979.28
2022-07-29T08:05:04.977Z,979.18
2022-07-29T08:10:36.637Z,979.94
2022-07-29T08:16:09.043Z,979.62
2022-07-29T08:21:40.486Z,980.39
2022-07-29T08:27:44.488Z,980.06
2022-07-29T08:32:56.323Z,979.84
2022-07-29T08:38:15.425Z,979.47
2022-07-29T08:43:51.485Z,979.88
2022-07-29T08:49:23.393Z,978.97
2022-07-29T08:54:56.775Z,979.78
2022-07-29T09:00:26.835Z,979.94
2022-07-29T09:05:58.353Z,979.04
2022-07-29T09:11:30.019Z,979.17
2022-07-29T09:17:02.963Z,979.49
2022-07-29T09:22:33.460Z,979.8
2022-07-29T09:28:05.509Z,979.15
2022-07-29T09:33:37.298Z,979.5
2022-07-29T09:39:09.222Z,979.0
2022-07-29T09:44:45.366Z,979.38
2022-07-29T09:50:20.996Z,979.58
2022-07-29T09:55:48.882Z,979.56
2022-07-29T10:01:20.664Z,979.15
2022-07-29T10:06:52.066Z,979.02
2022-07-29T10:12:23.947Z,977.81
2022-07-29T10:17:55.678Z,977.37
2022-07-29T10:23:27.390Z,977.96
2022-07-29T10:28:59.171Z,978.14
2022-07-29T10:34:30.986Z,977.93
2022-07-29T10:40:03.496Z,977.57
2022-07-29T10:45:41.958Z,977.44
2022-07-29T10:51:13.330Z,976.84
2022-07-29T10:56:47.026Z,977.18
2022-07-29T11:02:44.619Z,977.82
2022-07-29T11:07:47.630Z,977.88
2022-07-29T11:13:21.230Z,977.93
2022-07-29T11:18:51.023Z,977.8
2022-07-29T11:24:30.744Z,977.63
2022-07-29T11:29:54.495Z,977.39
2022-07-29T11:36:29.519Z,976.99
2022-07-29T11:41:00.105Z,977.36
2022-07-29T11:46:34.037Z,976.99
2022-07-29T11:52:11.181Z,977.14
2022-07-29T11:57:38.189Z,978.29
2022-07-29T12:03:09.563Z,977.59
2022-07-29T12:08:42.558Z,977.69
2022-07-29T12:14:15.574Z,977.35
2022-07-29T12:19:45.365Z,977.75
2022-07-29T12:25:35.049Z,977.8
2022-07-29T12:30:48.194Z,976.61
2022-07-29T12:36:19.671Z,976.79
2022-07-29T12:41:51.411Z,976.74
2022-07-29T12:47:27.362Z,976.13
2022-07-29T12:52:59.273Z,976.72
2022-07-29T12:58:30.902Z,977.12
2022-07-29T13:04:02.917Z,977.38
2022-07-29T13:09:34.451Z,976.66
2022-07-29T13:15:06.132Z,976.57
2022-07-29T13:20:37.776Z,977.24
2022-07-29T13:26:09.585Z,977.07
2022-07-29T13:31:41.445Z,976.92
2022-07-29T13:37:13.022Z,977.5
2022-07-29T13:42:44.818Z,977.56
2022-07-29T13:48:22.858Z,977.51
2022-07-29T13:53:54.785Z,977.48
2022-07-29T13:59:26.293Z,978.0
2022-07-29T14:04:58.313Z,977.7
2022-07-29T14:10:29.709Z,978.38
2022-07-29T14:16:01.589Z,977.92
2022-07-29T14:21:34.700Z,978.1
2022-07-29T14:27:05.092Z,978.05
2022-07-29T14:32:36.815Z,977.96
2022-07-29T14:38:08.395Z,978.26
2022-07-29T14:43:40.130Z,978.06
2022-07-29T14:49:16.517Z,978.22
2022-07-29T14:54:47.967Z,978.25
2022-07-29T15:00:19.814Z,978.11
2022-07-29T15:05:51.506Z,977.88
2022-07-29T15:11:23.245Z,977.65
2022-07-29T15:16:55.041Z,978.0
2022-07-29T15:22:26.620Z,977.71
2022-07-29T15:28:02.381Z,977.6
2022-07-29T15:33:30.181Z,977.57
2022-07-29T15:39:01.765Z,977.26
2022-07-29T15:44:33.794Z,977.19
2022-07-29T15:50:09.974Z,977.2
2022-07-29T15:55:44.993Z,976.88
2022-07-29T16:01:13.709Z,976.92
2022-07-29T16:06:45.246Z,977.23
2022-07-29T16:12:16.921Z,976.82
2022-07-29T16:17:48.750Z,976.72
2022-07-29T16:23:20.345Z,976.59
2022-07-29T16:28:52.478Z,976.18
2022-07-29T16:34:23.778Z,976.41
2022-07-29T16:39:55.608Z,976.58
2022-07-29T16:45:46.322Z,976.63
2022-07-29T16:51:05.358Z,976.64
2022-07-29T16:56:37.019Z,976.49
2022-07-29T17:02:08.983Z,976.52
2022-07-29T17:07:40.996Z,976.37
2022-07-29T17:13:12.306Z,976.34
2022-07-29T17:18:44.219Z,976.35
2022-07-29T17:24:15.691Z,976.31
2022-07-29T17:29:47.412Z,976.17
2022-07-29T17:35:19.159Z,976.18
2022-07-29T17:40:50.866Z,976.35
2022-07-29T17:46:22.887Z,976.36
2022-07-29T17:52:01.886Z,975.89
2022-07-29T17:57:32.435Z,976.02
2022-07-29T18:03:04.520Z,976.41
2022-07-29T18:08:35.928Z,976.3
2022-07-29T18:14:07.626Z,976.27
2022-07-29T18:19:39.376Z,976.23
2022-07-29T18:25:11.198Z,976.07
2022-07-29T18:30:42.886Z,976.12
2022-07-29T18:36:14.517Z,975.86
2022-07-29T18:41:51.913Z,976.14
2022-07-29T18:47:18.269Z,975.77
2022-07-29T18:52:54.065Z,975.48
2022-07-29T18:58:25.778Z,975.39
2022-07-29T19:03:57.520Z,975.25
2022-07-29T19:09:29.208Z,975.15
2022-07-29T19:15:00.985Z,975.05
2022-07-29T19:20:32.870Z,975.05
2022-07-29T19:26:10.097Z,975.09
2022-07-29T19:31:36.456Z,975.27
2022-07-29T19:37:08.145Z,975.3
2022-07-29T19:42:39.769Z,975.22
2022-07-29T19:48:11.413Z,975.2
2022-07-29T19:53:47.640Z,975.17
2022-07-29T19:59:29.583Z,974.45
2022-07-29T20:04:51.281Z,975.02
2022-07-29T20:10:22.844Z,975.04
2022-07-29T20:15:55.503Z,974.35
2022-07-29T20:21:27.029Z,975.32
2022-07-29T20:26:59.576Z,975.24
2022-07-29T20:32:30.466Z,974.98
2022-07-29T20:38:02.083Z,975.18
2022-07-29T20:43:39.886Z,975.18
2022-07-29T20:49:05.788Z,975.14
2022-07-29T20:54:41.699Z,975.16
2022-07-29T21:00:13.372Z,975.22
2022-07-29T21:05:45.251Z,975.37
2022-07-29T21:11:16.829Z,975.31
2022-07-29T21:16:48.523Z,975.79
2022-07-29T21:22:20.246Z,975.85
2022-07-29T21:27:52.046Z,976.33
2022-07-29T21:33:23.730Z,976.34
2022-07-29T21:38:55.422Z,976.83
2022-07-29T21:44:27.163Z,977.16
2022-07-29T21:49:58.954Z,977.01
2022-07-29T21:55:34.995Z,976.98
2022-07-29T22:01:06.990Z,977.11
2022-07-29T22:06:38.380Z,977.25
2022-07-29T22:12:10.202Z,977.31
2022-07-29T22:17:42.186Z,977.22
2022-07-29T22:23:13.605Z,977.34
2022-07-29T22:28:45.330Z,977.49
2022-07-29T22:34:17.123Z,977.95
2022-07-29T22:39:48.876Z,977.93
2022-07-29T22:45:20.551Z,978.05
2022-07-29T22:50:52.355Z,978.06
2022-07-29T22:56:28.342Z,977.95
2022-07-29T23:02:00.394Z,977.56
2022-07-29T23:07:31.876Z,977.73
2022-07-29T23:13:03.615Z,977.47
2022-07-29T23:18:35.275Z,977.66
2022-07-29T23:24:06.953Z,977.58
2022-07-29T23:29:38.641Z,977.34
2022-07-29T23:35:11.513Z,977.4
2022-07-29T23:40:42.047Z,977.59
2022-07-29T23:46:16.591Z,977.81
2022-07-29T23:51:45.590Z,977.73
2022-07-29T23:57:21.847Z,977.84
